Time;durP1;ratioP1;P1;durP2;ratioP2;P2;SDS_P1;SDS_P2;PMS_P1;PMS_P2;Temp;Humidity;BMP_temperature;BMP_pressure;BME280_temperature;BME280_humidity;BME280_pressure;Samples;Min_cycle;Max_cycle;Signal;HPM_P1;HPM_P2
2023/06/08 04:07:22;;;;;;;12.05;4.75;;;;;;;11.83;82.99;96386.25;2099793;27;20553;-55
2023/06/08 04:08:26;;;;;;;7.00;4.63;;;;;;;11.99;82.80;96399.38;2092901;28;20208;-56
2023/06/08 06:43:42;;;;;;;6.10;3.42;;;;;;;18.74;64.03;96384.69;2090838;27;20563;-56
2023/06/08 06:46:03;;;;;;;5.57;3.55;;;;;;;19.26;63.06;96399.88;2081982;28;20584;-56
2023/06/08 06:47:05;;;;;;;7.85;3.67;;;;;;;19.37;62.82;96397.19;2079183;28;20216;-56
2023/06/08 06:48:07;;;;;;;5.43;3.05;;;;;;;19.38;61.83;96409.44;2080738;28;20284;-56
2023/06/08 06:49:08;;;;;;;8.00;3.42;;;;;;;19.61;61.66;96408.50;2079547;28;20803;-57
2023/06/08 06:50:10;;;;;;;8.38;3.40;;;;;;;19.64;61.41;96411.72;2078186;28;20196;-56
2023/06/08 06:51:12;;;;;;;6.35;4.03;;;;;;;19.57;59.80;96407.91;2078567;28;20212;-57
2023/06/08 06:52:13;;;;;;;5.97;3.60;;;;;;;19.72;59.97;96409.25;2081457;28;20197;-57
2023/06/08 06:53:15;;;;;;;5.68;3.20;;;;;;;19.57;59.60;96387.53;2079833;28;20192;-57
2023/06/08 06:54:16;;;;;;;5.15;3.17;;;;;;;19.86;60.34;96415.22;2076776;28;20251;-56
2023/06/08 06:55:18;;;;;;;5.55;3.35;;;;;;;20.13;60.11;96416.44;2077847;28;20255;-57
2023/06/08 06:56:20;;;;;;;6.18;3.20;;;;;;;20.41;61.26;96403.41;2077899;28;20221;-56
2023/06/08 06:57:21;;;;;;;6.30;3.70;;;;;;;20.33;59.90;96415.53;2078133;28;20206;-57
2023/06/08 06:58:24;;;;;;;9.93;3.55;;;;;;;20.47;60.09;96421.44;2077720;28;20216;-56
2023/06/08 06:59:28;;;;;;;10.75;3.47;;;;;;;20.79;59.72;96423.88;2077312;28;20205;-57
2023/06/08 07:00:36;;;;;;;5.43;3.33;;;;;;;20.89;58.13;96423.91;2079830;28;20232;-57
2023/06/08 07:01:38;;;;;;;7.63;3.75;;;;;;;21.17;56.29;96418.75;2078550;28;20330;-57
2023/06/08 07:02:40;;;;;;;4.55;3.10;;;;;;;21.26;55.28;96428.50;2078700;28;20842;-57
2023/06/08 07:03:43;;;;;;;8.73;4.15;;;;;;;21.33;54.40;96423.47;2079690;28;20236;-57
2023/06/08 07:04:44;;;;;;;6.53;3.35;;;;;;;21.38;54.40;96426.53;2078250;28;20200;-56
2023/06/08 07:05:46;;;;;;;4.15;2.80;;;;;;;21.50;53.86;96424.59;2078030;28;20212;-56
2023/06/08 07:06:50;;;;;;;4.63;3.15;;;;;;;21.41;53.63;96422.75;2078602;28;20288;-56
2023/06/08 07:07:51;;;;;;;5.35;3.85;;;;;;;21.04;54.28;96422.50;2077651;28;20217;-56
2023/06/08 07:08:53;;;;;;;8.98;3.40;;;;;;;21.00;54.78;96418.47;2077062;28;20603;-57
2023/06/08 07:09:54;;;;;;;5.05;3.40;;;;;;;20.95;54.86;96423.34;2076248;28;20193;-56
2023/06/08 07:10:57;;;;;;;10.20;3.95;;;;;;;20.81;55.16;96426.41;2075060;28;20241;-57
2023/06/08 07:11:58;;;;;;;4.65;3.08;;;;;;;20.68;55.20;96426.63;2078675;28;20563;-57
2023/06/08 07:13:15;;;;;;;6.18;2.58;;;;;;;20.92;55.17;96426.28;2078095;28;20197;-57
2023/06/08 07:14:16;;;;;;;6.55;3.47;;;;;;;21.01;54.82;96428.13;2079169;28;20322;-57
2023/06/08 07:15:18;;;;;;;7.57;3.00;;;;;;;21.16;55.54;96425.84;2078187;28;20541;-57
2023/06/08 07:16:21;;;;;;;6.35;3.83;;;;;;;21.03;56.19;96428.78;2079662;28;20237;-57
2023/06/08 07:17:27;;;;;;;12.65;3.30;;;;;;;21.40;56.14;96427.25;2081359;28;20636;-56
2023/06/08 07:18:29;;;;;;;3.90;2.72;;;;;;;21.52;56.32;96431.44;2081711;28;20201;-56
2023/06/08 07:19:33;;;;;;;5.72;3.20;;;;;;;21.46;57.64;96429.34;2081492;28;20622;-56
2023/06/08 07:20:35;;;;;;;5.57;3.13;;;;;;;21.72;57.46;96430.59;2078266;28;20247;-56
2023/06/08 07:21:39;;;;;;;5.95;2.85;;;;;;;21.80;57.79;96425.38;2078247;28;20208;-56
2023/06/08 07:22:47;;;;;;;6.15;3.60;;;;;;;21.87;58.61;96431.81;2077375;28;20198;-56
2023/06/08 07:24:08;;;;;;;5.03;3.10;;;;;;;21.85;59.16;96439.06;2079220;28;20193;-57
2023/06/08 07:25:30;;;;;;;6.90;3.28;;;;;;;21.80;59.35;96436.88;2079494;28;20216;-57
2023/06/08 07:26:51;;;;;;;4.30;3.10;;;;;;;21.78;59.77;96436.16;2080097;28;20211;-57
2023/06/08 07:27:53;;;;;;;5.55;3.55;;;;;;;21.84;59.19;96438.25;2077600;28;20339;-57
2023/06/08 07:28:55;;;;;;;6.03;3.60;;;;;;;22.14;58.89;96446.97;2075560;28;20202;-57
2023/06/08 07:29:57;;;;;;;5.68;3.00;;;;;;;22.14;59.08;96443.47;2078295;28;20197;-56
2023/06/08 07:30:58;;;;;;;5.30;3.33;;;;;;;22.02;58.52;96445.47;2079249;28;20799;-57
2023/06/08 07:32:00;;;;;;;3.92;2.75;;;;;;;22.20;58.10;96448.22;2080906;28;20197;-57
2023/06/08 07:33:02;;;;;;;11.32;3.60;;;;;;;22.09;58.30;96448.38;2081293;28;20201;-56
2023/06/08 07:34:04;;;;;;;14.07;3.60;;;;;;;22.21;57.84;96447.22;2080128;28;20220;-56
2023/06/08 07:35:05;;;;;;;7.50;3.40;;;;;;;22.05;56.51;96447.00;2076892;28;20201;-56
2023/06/08 07:36:07;;;;;;;5.97;3.38;;;;;;;21.77;56.96;96454.91;2077661;28;20224;-56
2023/06/08 07:37:08;;;;;;;5.10;2.70;;;;;;;21.98;56.65;96423.66;2079283;28;20672;-56
2023/06/08 07:38:11;;;;;;;4.72;3.17;;;;;;;22.49;56.03;96449.94;2078299;28;20232;-57
2023/06/08 07:39:12;;;;;;;6.82;3.55;;;;;;;22.71;55.04;96442.53;2079104;28;20276;-57
2023/06/08 07:40:17;;;;;;;4.47;3.30;;;;;;;22.34;55.23;96450.38;2079699;28;20203;-56
2023/06/08 07:41:19;;;;;;;4.85;2.97;;;;;;;22.26;55.04;96450.28;2080009;28;20228;-56
2023/06/08 07:42:20;;;;;;;4.70;2.70;;;;;;;22.68;54.43;96449.00;2081761;28;20204;-56
2023/06/08 07:43:22;;;;;;;10.93;3.22;;;;;;;22.87;54.21;96449.84;2077887;28;20193;-56
2023/06/08 07:44:23;;;;;;;4.68;2.33;;;;;;;22.91;53.55;96449.41;2078318;28;20221;-56
2023/06/08 07:45:27;;;;;;;4.95;3.10;;;;;;;22.92;54.56;96442.25;2076979;28;20701;-56
2023/06/08 07:46:28;;;;;;;5.45;3.28;;;;;;;22.87;54.17;96452.50;2078644;28;20220;-56
2023/06/08 07:47:30;;;;;;;5.25;2.75;;;;;;;23.02;53.93;96444.84;2079872;28;20584;-56
2023/06/08 07:48:32;;;;;;;7.57;2.65;;;;;;;23.18;53.13;96447.69;2077946;28;20193;-56
2023/06/08 07:49:34;;;;;;;4.68;2.53;;;;;;;23.55;53.09;96451.16;2077251;28;20236;-56
2023/06/08 07:50:35;;;;;;;5.10;3.15;;;;;;;23.28;52.34;96453.78;2077242;28;20201;-56
2023/06/08 07:51:37;;;;;;;5.70;2.33;;;;;;;23.30;52.67;96456.31;2077479;28;20236;-57
2023/06/08 07:52:39;;;;;;;4.50;3.00;;;;;;;23.31;52.51;96450.81;2077557;28;20197;-57
2023/06/08 07:53:41;;;;;;;4.28;2.83;;;;;;;23.42;52.15;96454.25;2078367;28;20455;-57
2023/06/08 07:54:43;;;;;;;4.07;2.50;;;;;;;23.28;52.16;96444.97;2080432;28;20665;-57
2023/06/08 07:55:44;;;;;;;7.55;2.92;;;;;;;23.17;52.67;96455.84;2077257;28;20201;-56
2023/06/08 07:56:47;;;;;;;5.60;2.72;;;;;;;23.11;53.39;96455.44;2076314;28;20243;-57
2023/06/08 07:57:48;;;;;;;5.03;2.40;;;;;;;23.19;53.81;96453.88;2072077;28;20866;-57
2023/06/08 07:58:50;;;;;;;4.90;2.42;;;;;;;23.10;53.68;96445.75;2072778;28;20950;-56
2023/06/08 07:59:51;;;;;;;5.20;3.03;;;;;;;23.44;53.45;96449.59;2073339;28;20206;-57
2023/06/08 08:00:52;;;;;;;5.97;2.85;;;;;;;23.29;52.61;96441.31;2073949;28;20233;-57
2023/06/08 08:01:54;;;;;;;5.00;2.78;;;;;;;23.22;53.24;96449.06;2073612;28;20203;-57
2023/06/08 08:02:56;;;;;;;7.43;3.05;;;;;;;23.13;52.18;96441.97;2073910;28;20201;-57
2023/06/08 08:03:57;;;;;;;6.55;3.63;;;;;;;22.90;52.92;96442.41;2075619;28;20773;-57
2023/06/08 08:04:59;;;;;;;5.40;3.03;;;;;;;23.10;52.66;96440.44;2077370;28;20198;-57
2023/06/08 08:06:01;;;;;;;3.65;2.83;;;;;;;23.14;53.16;96446.31;2073018;28;20272;-57
2023/06/08 08:07:02;;;;;;;11.85;2.95;;;;;;;23.64;52.24;96447.56;2073352;28;20623;-57
2023/06/08 08:08:04;;;;;;;7.50;3.50;;;;;;;23.66;52.64;96445.59;2075055;28;20193;-56
2023/06/08 08:09:06;;;;;;;5.82;3.00;;;;;;;24.12;51.75;96440.94;2074360;28;20221;-57
2023/06/08 08:10:08;;;;;;;5.28;2.80;;;;;;;23.95;51.52;96450.66;2071348;28;20223;-57
2023/06/08 08:11:10;;;;;;;5.90;2.80;;;;;;;23.74;52.23;96450.97;2071856;28;20226;-57
2023/06/08 08:12:11;;;;;;;5.50;3.03;;;;;;;23.50;52.49;96429.47;2072399;28;20201;-57
2023/06/08 08:13:13;;;;;;;4.93;2.83;;;;;;;23.24;52.32;96446.25;2074735;28;20256;-57
2023/06/08 08:14:14;;;;;;;4.60;2.72;;;;;;;23.18;52.56;96452.19;2076624;28;20249;-57
2023/06/08 08:15:16;;;;;;;5.30;3.30;;;;;;;23.28;52.60;96453.78;2073502;28;20857;-56
2023/06/08 08:16:18;;;;;;;4.65;2.88;;;;;;;23.31;52.75;96452.63;2071036;28;20316;-57
2023/06/08 08:17:20;;;;;;;5.95;3.22;;;;;;;23.58;51.83;96443.72;2072286;28;20289;-56
2023/06/08 08:18:21;;;;;;;7.40;2.88;;;;;;;23.76;51.67;96456.16;2072278;28;20209;-57
2023/06/08 08:19:23;;;;;;;8.23;3.40;;;;;;;23.30;52.36;96457.13;2072135;28;20209;-57
2023/06/08 08:20:24;;;;;;;6.15;3.03;;;;;;;23.50;52.26;96450.81;2072526;28;20202;-56
2023/06/08 08:21:26;;;;;;;4.75;2.92;;;;;;;23.52;52.79;96444.31;2071796;28;20320;-56
2023/06/08 08:22:27;;;;;;;3.70;2.50;;;;;;;23.41;52.72;96449.91;2073436;28;20650;-57
2023/06/08 08:23:29;;;;;;;4.13;2.33;;;;;;;23.17;52.69;96446.00;2072935;28;20202;-57
2023/06/08 08:24:32;;;;;;;9.48;2.40;;;;;;;23.64;52.46;96439.56;2071207;28;20206;-57
2023/06/08 08:25:34;;;;;;;4.05;2.90;;;;;;;24.04;51.50;96437.38;2073601;28;20914;-56
2023/06/08 08:26:43;;;;;;;4.70;2.70;;;;;;;23.87;51.35;96441.72;2073493;28;20218;-57
2023/06/08 08:27:44;;;;;;;5.15;3.13;;;;;;;24.05;51.69;96439.88;2074604;28;20204;-57
2023/06/08 08:28:46;;;;;;;4.40;2.97;;;;;;;24.03;51.68;96441.88;2072227;28;20281;-57
2023/06/08 08:29:48;;;;;;;4.40;3.15;;;;;;;24.03;50.20;96446.38;2071496;28;20202;-57
2023/06/08 08:30:50;;;;;;;8.57;2.95;;;;;;;23.92;51.49;96442.13;2072425;28;20193;-57
2023/06/08 08:31:51;;;;;;;3.38;2.28;;;;;;;23.74;51.29;96447.47;2071685;28;20232;-57
2023/06/08 08:32:53;;;;;;;4.07;2.80;;;;;;;23.97;51.51;96450.50;2073590;28;20263;-56
2023/06/08 08:33:54;;;;;;;5.78;2.53;;;;;;;23.69;51.59;96445.28;2069707;28;20553;-57
2023/06/08 08:34:56;;;;;;;6.53;2.60;;;;;;;23.52;51.75;96443.50;2071843;28;20207;-57
2023/06/08 08:35:57;;;;;;;4.13;3.05;;;;;;;23.76;51.13;96450.84;2073537;28;20225;-56
2023/06/08 08:36:59;;;;;;;4.35;2.83;;;;;;;24.11;49.88;96441.94;2074554;28;20201;-57
2023/06/08 08:38:00;;;;;;;5.30;3.35;;;;;;;24.15;50.29;96434.44;2073419;28;20199;-56
2023/06/08 08:39:02;;;;;;;4.82;2.70;;;;;;;23.85;50.53;96444.56;2070057;28;20205;-57
2023/06/08 08:40:05;;;;;;;6.45;3.38;;;;;;;23.50;51.49;96437.47;2071247;28;20197;-57
2023/06/08 08:41:09;;;;;;;4.70;2.85;;;;;;;23.85;51.18;96449.91;2070450;28;20252;-57
2023/06/08 08:42:14;;;;;;;5.68;2.92;;;;;;;24.01;51.30;96440.34;2072216;28;20206;-57
2023/06/08 08:43:23;;;;;;;4.13;2.80;;;;;;;23.96;50.28;96449.66;2072047;28;20198;-57
2023/06/08 08:44:26;;;;;;;4.38;2.85;;;;;;;23.63;50.89;96451.25;2071794;28;20728;-57
2023/06/08 08:45:31;;;;;;;4.38;3.17;;;;;;;23.46;50.57;96437.81;2071455;28;20245;-57
2023/06/08 08:46:34;;;;;;;4.82;3.10;;;;;;;23.41;51.50;96448.06;2070432;28;20229;-57
2023/06/08 08:47:37;;;;;;;4.80;2.92;;;;;;;23.61;51.36;96447.91;2074606;28;20819;-57
2023/06/08 08:48:44;;;;;;;3.78;2.67;;;;;;;23.58;50.89;96450.84;2075710;28;20284;-58
2023/06/08 08:49:51;;;;;;;3.63;2.95;;;;;;;23.70;51.06;96446.94;2074457;28;20548;-59
2023/06/08 08:50:58;;;;;;;5.13;3.20;;;;;;;24.15;50.83;96455.78;2070128;28;20217;-59
2023/06/08 08:52:01;;;;;;;8.10;2.97;;;;;;;24.21;49.54;96443.63;2071945;28;20255;-57
2023/06/08 08:53:03;;;;;;;3.72;2.63;;;;;;;24.18;49.83;96443.97;2071776;28;20198;-56
2023/06/08 08:54:05;;;;;;;4.30;3.03;;;;;;;23.94;49.15;96448.16;2071980;28;20557;-56
2023/06/08 08:55:07;;;;;;;6.38;3.10;;;;;;;23.92;50.42;96442.97;2074839;28;20197;-56
2023/06/08 08:56:28;;;;;;;7.93;3.63;;;;;;;24.18;49.39;96444.78;2074344;28;20315;-57
2023/06/08 08:57:31;;;;;;;4.10;2.75;;;;;;;24.32;48.69;96445.19;2075931;28;20205;-56
2023/06/08 08:58:34;;;;;;;8.65;3.25;;;;;;;24.02;49.09;96439.38;2072933;28;20534;-56
2023/06/08 08:59:36;;;;;;;7.65;3.40;;;;;;;24.36;49.19;96447.38;2071820;28;20292;-56
2023/06/08 09:00:37;;;;;;;4.22;3.10;;;;;;;24.10;49.90;96444.75;2072922;28;20910;-56
2023/06/08 09:01:40;;;;;;;5.28;3.63;;;;;;;24.24;49.91;96451.31;2072832;28;20671;-56
2023/06/08 09:02:42;;;;;;;23.05;3.90;;;;;;;24.33;50.07;96453.03;2071739;28;20241;-56
2023/06/08 09:03:45;;;;;;;6.68;3.30;;;;;;;24.25;49.57;96445.84;2073985;28;20615;-56
2023/06/08 09:04:46;;;;;;;6.35;3.15;;;;;;;24.43;48.70;96448.41;2074614;28;20205;-56
2023/06/08 09:05:51;;;;;;;5.30;3.40;;;;;;;24.21;48.80;96443.63;2072929;28;20201;-56
2023/06/08 09:06:53;;;;;;;6.43;3.17;;;;;;;24.12;49.79;96442.75;2071919;28;20232;-56
2023/06/08 09:07:58;;;;;;;6.25;3.22;;;;;;;24.18;49.25;96436.78;2072022;28;20285;-56
2023/06/08 09:08:59;;;;;;;4.60;2.88;;;;;;;23.98;49.23;96436.16;2071943;28;20210;-56
2023/06/08 09:10:22;;;;;;;5.15;3.38;;;;;;;24.01;49.34;96440.34;2073196;28;20228;-56
2023/06/08 09:11:24;;;;;;;4.45;3.30;;;;;;;24.10;49.33;96442.91;2071298;28;20220;-56
2023/06/08 09:12:37;;;;;;;4.50;3.15;;;;;;;24.23;48.51;96445.16;2071724;28;20243;-56
2023/06/08 09:13:39;;;;;;;5.55;2.97;;;;;;;24.23;48.06;96442.47;2072331;28;20675;-56
2023/06/08 09:14:57;;;;;;;6.50;3.20;;;;;;;23.97;47.66;96437.16;2073290;28;20655;-56
2023/06/08 09:16:11;;;;;;;5.00;3.33;;;;;;;24.02;47.85;96434.84;2072336;28;20278;-56
2023/06/08 09:17:37;;;;;;;5.32;3.47;;;;;;;23.69;48.15;96434.63;2070367;28;20281;-56
2023/06/08 09:18:39;;;;;;;5.53;3.50;;;;;;;23.91;48.06;96432.44;2071354;28;20205;-57
2023/06/08 09:19:52;;;;;;;4.97;3.60;;;;;;;24.07;47.84;96431.72;2071850;28;20679;-57
2023/06/08 09:20:55;;;;;;;4.40;3.33;;;;;;;23.82;47.95;96434.22;2071333;28;20221;-57
2023/06/08 09:21:56;;;;;;;7.10;3.42;;;;;;;23.89;47.72;96429.91;2073404;28;20595;-57
2023/06/08 09:26:10;;;;;;;6.10;3.53;;;;;;;24.32;47.17;96426.53;2071856;28;20182;-57
2023/06/08 09:27:23;;;;;;;5.10;3.25;;;;;;;24.36;47.35;96420.69;2072925;28;20249;-56
2023/06/08 09:28:25;;;;;;;5.75;3.20;;;;;;;24.56;47.01;96429.28;2071746;28;20934;-57
2023/06/08 09:29:36;;;;;;;5.05;3.28;;;;;;;24.73;46.75;96430.19;2070666;28;20284;-58
2023/06/08 09:30:37;;;;;;;9.18;3.42;;;;;;;24.78;46.52;96425.22;2072574;28;20208;-57
2023/06/08 09:31:49;;;;;;;5.30;3.40;;;;;;;24.74;45.56;96420.34;2071872;28;20198;-58
2023/06/08 09:32:51;;;;;;;6.53;3.53;;;;;;;24.61;45.40;96418.94;2072740;28;20483;-57
2023/06/08 09:34:04;;;;;;;4.45;3.05;;;;;;;24.74;46.04;96420.34;2072960;28;20605;-57
2023/06/08 09:35:07;;;;;;;4.88;3.25;;;;;;;25.10;46.13;96420.06;2071155;28;20229;-57
2023/06/08 09:36:15;;;;;;;7.07;3.63;;;;;;;25.84;45.23;96414.75;2072842;28;20252;-58
2023/06/08 09:37:18;;;;;;;5.75;3.00;;;;;;;26.32;44.74;96413.97;2070071;28;20608;-57
2023/06/08 09:38:20;;;;;;;5.10;3.30;;;;;;;26.30;45.48;96416.81;2071893;28;20289;-57
2023/06/08 09:39:22;;;;;;;5.05;3.30;;;;;;;26.61;44.53;96410.66;2072419;28;20213;-57
2023/06/08 09:40:24;;;;;;;13.10;2.95;;;;;;;26.66;44.31;96412.81;2073251;28;20649;-57
2023/06/08 09:41:26;;;;;;;6.40;2.67;;;;;;;26.72;43.48;96412.94;2071963;28;20213;-57
2023/06/08 09:42:53;;;;;;;3.88;3.00;;;;;;;26.96;42.10;96413.03;2074057;28;20294;-57
2023/06/08 09:43:55;;;;;;;4.53;2.78;;;;;;;26.91;41.65;96410.03;2071926;28;20289;-57
2023/06/08 09:45:08;;;;;;;5.30;2.75;;;;;;;27.13;41.46;96414.56;2073159;28;20724;-57
2023/06/08 09:46:17;;;;;;;4.97;2.55;;;;;;;26.64;40.88;96409.47;2072645;28;20286;-57
2023/06/08 09:47:25;;;;;;;4.82;3.10;;;;;;;26.54;41.75;96415.88;2073300;28;20711;-57
2023/06/08 09:48:27;;;;;;;5.00;3.40;;;;;;;26.42;42.74;96414.59;2071639;28;20194;-57
2023/06/08 09:49:29;;;;;;;5.30;3.08;;;;;;;26.66;42.41;96408.28;2075463;28;20244;-57
2023/06/08 09:50:31;;;;;;;5.82;2.80;;;;;;;26.93;42.11;96414.22;2072861;28;20644;-57
2023/06/08 09:51:35;;;;;;;4.47;3.13;;;;;;;27.20;42.34;96410.16;2072988;28;20237;-57
2023/06/08 09:52:37;;;;;;;5.35;3.15;;;;;;;27.23;43.03;96413.50;2073757;28;20293;-57
2023/06/08 09:53:41;;;;;;;4.30;3.00;;;;;;;27.66;42.98;96401.25;2074332;28;20204;-57
2023/06/08 09:54:45;;;;;;;5.57;3.17;;;;;;;28.02;42.41;96405.09;2072937;28;20244;-57
2023/06/08 09:55:48;;;;;;;4.57;3.40;;;;;;;27.92;42.64;96401.84;2072221;28;20561;-57
2023/06/08 09:56:54;;;;;;;4.38;2.90;;;;;;;27.74;41.17;96405.72;2072946;28;20193;-57
2023/06/08 09:57:57;;;;;;;3.72;3.10;;;;;;;27.23;41.62;96394.75;2071596;28;20249;-57
2023/06/08 09:59:06;;;;;;;4.90;3.33;;;;;;;27.32;41.38;96404.38;2069845;28;20627;-57
2023/06/08 10:00:14;;;;;;;4.28;2.92;;;;;;;27.85;41.61;96399.06;2071683;28;20335;-57
2023/06/08 10:01:21;;;;;;;6.18;3.38;;;;;;;28.06;40.97;96397.53;2071780;28;20305;-57
2023/06/08 10:02:49;;;;;;;5.57;3.00;;;;;;;28.29;40.81;96394.75;2073544;28;20837;-57
2023/06/08 10:03:52;;;;;;;4.47;3.33;;;;;;;28.16;40.58;96393.56;2071484;28;20198;-58
2023/06/08 10:05:04;;;;;;;3.72;2.63;;;;;;;27.82;40.75;96396.75;2074175;28;20229;-57
2023/06/08 10:06:08;;;;;;;5.03;2.78;;;;;;;27.76;40.24;96395.63;2072571;28;20217;-58
2023/06/08 10:07:14;;;;;;;7.13;2.80;;;;;;;27.86;40.46;96384.66;2072285;28;20677;-58
2023/06/08 10:08:21;;;;;;;5.65;3.25;;;;;;;28.16;40.15;96393.56;2075711;28;20200;-58
2023/06/08 10:09:28;;;;;;;8.68;3.05;;;;;;;28.45;39.89;96386.50;2072989;28;20629;-58
2023/06/08 10:10:35;;;;;;;6.50;3.00;;;;;;;28.72;39.11;96394.91;2070150;28;20216;-58
2023/06/08 10:11:39;;;;;;;7.65;2.70;;;;;;;28.36;38.46;96390.31;2072565;28;20244;-58
2023/06/08 10:12:41;;;;;;;4.07;2.75;;;;;;;28.48;38.99;96396.88;2073663;28;20630;-58
2023/06/08 10:13:43;;;;;;;4.75;3.70;;;;;;;28.50;38.00;96381.38;2072725;28;20201;-58
2023/06/08 10:14:48;;;;;;;8.40;3.27;;;;;;;27.97;38.94;96384.19;2072735;28;20202;-58
2023/06/08 10:15:51;;;;;;;4.25;3.20;;;;;;;28.30;39.18;96388.38;2073657;28;20475;-58
2023/06/08 10:16:55;;;;;;;16.00;10.45;;;;;;;28.12;39.55;96391.44;2072924;28;20205;-59
2023/06/08 10:17:59;;;;;;;9.60;6.65;;;;;;;28.34;38.58;96381.59;2082794;28;20197;-58
2023/06/08 10:19:02;;;;;;;6.75;5.22;;;;;;;28.12;38.21;96389.56;2082041;28;20192;-59
2023/06/08 10:20:05;;;;;;;40.85;32.10;;;;;;;28.23;38.89;96382.09;2071949;28;20204;-58
2023/06/08 10:21:07;;;;;;;5.83;4.13;;;;;;;28.42;38.96;96381.50;2070513;28;20320;-59
2023/06/08 10:22:09;;;;;;;6.97;3.23;;;;;;;28.74;38.16;96378.59;2070688;28;20430;-58
2023/06/08 10:23:12;;;;;;;4.00;2.87;;;;;;;28.41;38.69;96387.06;2072273;28;20462;-58
2023/06/08 10:24:15;;;;;;;3.87;3.20;;;;;;;28.42;39.63;96380.69;2071409;28;20435;-59
2023/06/08 10:25:18;;;;;;;4.93;3.37;;;;;;;28.62;39.51;96381.75;2070356;28;20427;-59
2023/06/08 10:26:20;;;;;;;5.40;3.30;;;;;;;28.59;39.40;96386.66;2070924;28;20555;-58
2023/06/08 10:27:30;;;;;;;5.40;3.33;;;;;;;28.11;40.28;96379.03;2072877;28;20458;-58
2023/06/08 10:28:32;;;;;;;5.17;3.33;;;;;;;28.15;40.55;96381.16;2071813;28;20189;-59
2023/06/08 10:29:33;;;;;;;4.53;3.30;;;;;;;28.46;40.12;96387.34;2071697;28;20450;-58
2023/06/08 10:30:40;;;;;;;3.70;2.80;;;;;;;28.20;39.08;96375.22;2070064;28;20438;-58
2023/06/08 10:31:47;;;;;;;5.80;3.40;;;;;;;28.40;38.85;96378.16;2072968;28;20463;-58
2023/06/08 10:32:50;;;;;;;4.73;3.37;;;;;;;28.08;39.02;96369.50;2074131;28;20780;-59
2023/06/08 10:33:53;;;;;;;5.57;3.53;;;;;;;27.94;38.75;96376.50;2074333;28;20541;-59
2023/06/08 10:35:01;;;;;;;4.43;3.20;;;;;;;28.05;39.28;96375.25;2073966;28;20535;-58
2023/06/08 10:36:11;;;;;;;5.90;2.93;;;;;;;28.33;40.43;96383.47;2069791;28;20458;-58
2023/06/08 10:37:30;;;;;;;7.10;3.67;;;;;;;28.69;39.18;96381.03;2070755;28;20507;-59
2023/06/08 10:38:37;;;;;;;4.53;3.63;;;;;;;28.88;39.52;96380.41;2070910;28;20473;-57
2023/06/08 10:39:47;;;;;;;5.30;3.23;;;;;;;29.29;39.74;96378.97;2071143;28;20434;-58
2023/06/08 10:40:50;;;;;;;5.43;2.90;;;;;;;29.43;37.99;96383.44;2070657;28;20424;-59
2023/06/08 10:41:57;;;;;;;3.80;2.60;;;;;;;29.03;38.92;96383.03;2072605;28;20426;-58
2023/06/08 10:42:59;;;;;;;5.90;3.53;;;;;;;29.33;37.23;96382.91;2070425;28;20499;-58
2023/06/08 10:44:31;;;;;;;4.70;3.37;;;;;;;29.05;36.66;96378.31;2071451;28;20920;-58
2023/06/08 10:45:37;;;;;;;4.17;3.20;;;;;;;29.06;36.30;96373.75;2070089;28;20465;-58
2023/06/08 10:46:40;;;;;;;13.30;3.80;;;;;;;28.32;36.10;96375.59;2070719;28;21038;-58
2023/06/08 10:47:42;;;;;;;7.33;3.50;;;;;;;28.27;37.76;96373.47;2071095;28;20814;-58
2023/06/08 10:48:43;;;;;;;4.80;2.70;;;;;;;28.61;38.94;96373.88;2071221;28;20998;-58
2023/06/08 10:50:17;;;;;;;3.87;2.87;;;;;;;29.61;37.77;96377.59;2071332;28;20431;-58
2023/06/08 10:51:23;;;;;;;4.90;3.13;;;;;;;29.62;37.27;96378.41;2068563;28;20482;-58
2023/06/08 10:52:25;;;;;;;5.37;3.27;;;;;;;29.05;37.31;96377.47;2072058;28;20423;-58
2023/06/08 10:53:41;;;;;;;4.93;3.00;;;;;;;29.37;37.15;96361.88;2072751;28;20794;-58
2023/06/08 10:54:57;;;;;;;4.40;2.90;;;;;;;28.26;37.24;96368.28;2073706;28;20464;-58
2023/06/08 10:55:59;;;;;;;5.50;4.00;;;;;;;28.65;37.86;96367.13;2071678;28;20466;-58
2023/06/08 10:57:04;;;;;;;5.37;3.33;;;;;;;28.22;38.35;96370.50;2071395;28;20426;-59
2023/06/08 10:58:21;;;;;;;14.60;3.30;;;;;;;28.65;38.44;96364.44;2071005;28;20427;-58
2023/06/08 10:59:34;;;;;;;4.50;3.50;;;;;;;28.40;38.25;96363.94;2071964;28;20513;-58
2023/06/08 11:00:42;;;;;;;4.60;3.50;;;;;;;27.81;37.72;96363.72;2072063;28;20430;-58
2023/06/08 11:01:46;;;;;;;6.70;3.38;;;;;;;27.41;38.86;96354.25;2074610;28;20464;-58
2023/06/08 11:02:49;;;;;;;5.03;3.40;;;;;;;27.09;39.35;96367.72;2070483;28;20232;-58
2023/06/08 11:03:50;;;;;;;5.32;3.80;;;;;;;27.30;38.72;96368.88;2071244;28;20292;-58
2023/06/08 11:04:53;;;;;;;4.53;3.67;;;;;;;27.75;38.75;96364.47;2071402;28;20202;-57
2023/06/08 11:06:00;;;;;;;10.98;3.40;;;;;;;28.63;37.90;96364.63;2071470;28;20466;-58
2023/06/08 11:07:04;;;;;;;10.38;3.35;;;;;;;28.81;37.36;96368.75;2070623;28;20654;-58
2023/06/08 11:08:10;;;;;;;4.43;3.20;;;;;;;29.31;36.34;96355.41;2072020;28;20244;-58
2023/06/08 11:09:14;;;;;;;4.15;3.40;;;;;;;29.28;36.25;96364.69;2071718;28;20206;-58
2023/06/08 11:10:16;;;;;;;4.77;3.53;;;;;;;29.63;35.77;96364.75;2071146;28;20205;-58
2023/06/08 11:11:17;;;;;;;7.90;3.47;;;;;;;29.89;36.09;96366.00;2070462;28;20498;-58
2023/06/08 11:12:19;;;;;;;6.30;3.60;;;;;;;30.01;34.73;96352.81;2072228;28;20435;-58
2023/06/08 11:13:21;;;;;;;5.70;3.47;;;;;;;28.15;35.88;96356.16;2071741;28;20430;-58
2023/06/08 11:14:23;;;;;;;7.03;3.83;;;;;;;27.90;35.93;96352.94;2071465;28;20427;-57
2023/06/08 11:15:25;;;;;;;3.87;3.10;;;;;;;28.21;35.98;96355.41;2071676;28;20533;-58
2023/06/08 11:16:26;;;;;;;7.70;3.90;;;;;;;27.90;37.75;96353.75;2071246;28;20483;-57
2023/06/08 11:17:28;;;;;;;5.05;3.15;;;;;;;28.25;37.88;96351.38;2072528;28;20427;-58
2023/06/08 11:18:30;;;;;;;3.85;3.25;;;;;;;27.57;38.55;96342.56;2070808;28;20200;-58
2023/06/08 11:19:33;;;;;;;5.17;3.00;;;;;;;28.67;37.35;96352.50;2071742;28;20205;-58
2023/06/08 11:20:39;;;;;;;5.40;3.73;;;;;;;29.22;36.41;96349.31;2071874;28;20434;-58
2023/06/08 11:21:41;;;;;;;6.25;4.22;;;;;;;28.92;35.94;96349.44;2071371;28;20426;-58
2023/06/08 11:22:43;;;;;;;5.63;3.80;;;;;;;28.04;37.63;96352.13;2071495;28;20236;-58
2023/06/08 11:23:44;;;;;;;12.00;8.50;;;;;;;27.77;37.06;96350.88;2070864;28;20431;-58
2023/06/08 11:24:46;;;;;;;5.20;3.40;;;;;;;27.59;37.41;96338.66;2070930;28;20827;-58
2023/06/08 11:25:47;;;;;;;48.90;33.10;;;;;;;28.34;38.03;96338.66;2070751;28;20194;-58
2023/06/08 11:26:49;;;;;;;21.17;10.00;;;;;;;28.76;37.52;96344.31;2072172;28;20677;-58
2023/06/08 11:28:04;;;;;;;5.90;4.10;;;;;;;29.58;37.19;96339.50;2070821;28;20728;-58
2023/06/08 11:29:06;;;;;;;6.65;3.72;;;;;;;30.09;36.73;96338.38;2071203;28;20527;-58
2023/06/08 11:30:08;;;;;;;7.00;3.40;;;;;;;30.30;35.69;96334.75;2071293;28;20541;-58
2023/06/08 11:31:10;;;;;;;5.20;3.67;;;;;;;30.02;36.04;96341.03;2070324;28;20620;-58
2023/06/08 11:32:16;;;;;;;7.40;4.00;;;;;;;30.53;35.11;96329.06;2073267;28;20458;-58
2023/06/08 11:33:19;;;;;;;10.90;3.13;;;;;;;30.87;35.49;96332.66;2073629;28;20906;-58
2023/06/08 11:34:22;;;;;;;13.47;3.93;;;;;;;30.25;34.88;96335.34;2075565;28;20434;-58
2023/06/08 11:35:25;;;;;;;4.83;3.73;;;;;;;30.26;35.52;96328.94;2074023;28;20488;-58
2023/06/08 11:36:27;;;;;;;5.07;4.10;;;;;;;30.03;35.82;96325.72;2074734;28;20454;-58
2023/06/08 11:37:33;;;;;;;4.60;3.50;;;;;;;29.75;35.29;96326.56;2075861;28;20736;-58
2023/06/08 11:38:35;;;;;;;6.87;3.47;;;;;;;30.05;35.45;96324.47;2073766;28;20807;-58
2023/06/08 11:39:42;;;;;;;6.40;4.40;;;;;;;30.74;34.77;96324.53;2072207;28;20461;-57
2023/06/08 11:40:44;;;;;;;4.23;3.20;;;;;;;30.87;34.92;96313.81;2071367;28;20438;-58
2023/06/08 11:41:47;;;;;;;4.57;3.13;;;;;;;30.93;34.16;96315.69;2072547;28;20427;-57
2023/06/08 11:42:49;;;;;;;6.30;3.70;;;;;;;31.01;34.43;96311.09;2071509;28;20458;-57
2023/06/08 11:43:51;;;;;;;5.83;4.07;;;;;;;30.74;35.31;96308.38;2072987;28;20438;-57
2023/06/08 11:44:54;;;;;;;4.73;3.47;;;;;;;30.26;35.78;96306.56;2073952;28;20430;-57
2023/06/08 11:45:59;;;;;;;5.23;3.50;;;;;;;31.07;35.76;96313.00;2074526;28;20463;-57
2023/06/08 11:47:01;;;;;;;7.50;4.10;;;;;;;31.33;34.54;96311.38;2076240;28;20514;-57
2023/06/08 11:48:03;;;;;;;8.10;3.80;;;;;;;31.62;33.96;96306.56;2071501;28;20425;-57